Aeroporto :
LOGIN :

Iscrizione | Disclaimer

   EN    FR    IT 

 










Sommario :    VFR   VFR Marginale   IFR   IFR Intensivo   IFR Molto Intensivo
Visibilità : 
Base nubi : 
>= 8 km
>= 3000ft
5 / 8 km
1000 / 3000 ft
1500m / 5 km
500 / 1000 ft
800 / 1500m
200 / 500 ft
< 800m
< 200 ft
Simboli :   Temporali  Nebbia  Neve Forte  Precipitazioni Forti  Vento > 20 kt
SIGMETs :   Varie  Temporali  Ghiacco  Turbolenza  Onda orograficha  Ceneri Vulcaniche






- Altitudine del aeroporto : 40 ft
- Codice IATA : RMI


LIPR - Federico Fellini Int. Rimini

ULTIMO METAR :
  • 141420Z 06003KT 020V110 CAVOK 13/09 Q1007

METARs OBSOLETI :
  • 141350Z 05003KT 320V090 CAVOK 13/09 Q1007
  • 141320Z 03004KT 360V070 CAVOK 13/08 Q1007
  • 141250Z 01004KT 340V040 9999 FEW060 14/08 Q1007
  • 141220Z 32005KT 290V350 9999 SCT060 14/08 Q1008
  • 141150Z 29005KT 9999 BKN060 13/08 Q1008

TAF TAF LIPR
Valido dal 14 a 12 ore il 14 a 21 ore UTC


141100Z 1412/1421 VRB05KT 6000 SCT020
TEMPO 1412/1415 RA
BECMG 1418/1420 16010KT



MetMap, La meteo Aeronautica in un colpo d'occhio ! - Copyright ORBIFLY Dicembre 2007 - Disclaimer

ORBIFLY MET'MAP TEAM :

Programmazione e sviluppo : Alexandra Zaïnal
Concezione e sviluppo : Baudouin d'Aumeries
Co-Programmazione e sviluppo : Marc-Olivier Méhu
Supporto tecnico e logistico : Manuel Goepfert
Aiuto per la traduzione : Arnaldo La Scala

Contatto : metmap@orbifly.com




FONTI E CREDITI :

   NOAA